Time;durP1;ratioP1;P1;durP2;ratioP2;P2;SDS_P1;SDS_P2;PMS_P1;PMS_P2;Temp;Humidity;BMP_temperature;BMP_pressure;BME280_temperature;BME280_humidity;BME280_pressure;Samples;Min_cycle;Max_cycle;Signal;HPM_P1;HPM_P2
2023/02/23 00:02:21;;;;;;;10.08;3.90;;;;;;;-2.93;56.07;100932.27;1743584;81;21537;-65
2023/02/23 00:04:50;;;;;;;8.35;4.10;;;;;;;-2.93;55.86;100937.16;1743776;82;21553;-63
2023/02/23 00:07:19;;;;;;;11.63;4.22;;;;;;;-2.92;55.48;100944.23;1743959;82;21146;-63
2023/02/23 00:09:49;;;;;;;9.70;3.92;;;;;;;-2.94;55.11;100939.45;1743503;82;21205;-65
2023/02/23 00:12:19;;;;;;;11.57;4.60;;;;;;;-2.94;55.11;100943.47;1743574;82;21126;-64
2023/02/23 00:14:48;;;;;;;8.83;3.42;;;;;;;-2.95;54.55;100939.07;1743582;81;21149;-63
2023/02/23 00:17:17;;;;;;;7.58;3.50;;;;;;;-3.02;54.19;100942.25;1740211;82;21123;-63
2023/02/23 00:19:48;;;;;;;11.00;3.98;;;;;;;-3.08;54.04;100941.30;1735953;81;21186;-63
2023/02/23 00:22:18;;;;;;;25.52;4.30;;;;;;;-3.08;54.20;100945.31;1735787;83;21135;-63
2023/02/23 00:24:49;;;;;;;11.85;3.60;;;;;;;-3.07;53.90;100949.72;1736081;83;21119;-63
2023/02/23 00:27:20;;;;;;;8.20;3.75;;;;;;;-3.09;53.67;100951.63;1735912;82;21609;-63
2023/02/23 00:29:50;;;;;;;9.25;4.10;;;;;;;-3.11;53.31;100950.88;1735885;81;21107;-63
2023/02/23 00:32:20;;;;;;;9.68;4.05;;;;;;;-3.14;53.39;100950.59;1736206;82;21139;-64
2023/02/23 00:34:52;;;;;;;11.73;4.25;;;;;;;-3.17;53.10;100953.46;1736053;83;21107;-63
2023/02/23 00:37:21;;;;;;;9.48;4.35;;;;;;;-3.18;53.47;100958.91;1711440;83;21122;-64
2023/02/23 00:39:55;;;;;;;12.20;4.25;;;;;;;-3.21;53.73;100963.52;1735954;82;21519;-64
2023/02/23 00:42:28;;;;;;;11.40;4.83;;;;;;;-3.23;53.96;100960.55;1735989;82;21107;-63
2023/02/23 00:45:06;;;;;;;10.58;4.83;;;;;;;-3.25;54.24;100962.45;1736166;82;21118;-64
2023/02/23 00:47:30;;;;;;;10.65;4.47;;;;;;;-3.24;54.57;100968.20;1735569;83;21142;-63
2023/02/23 00:50:00;;;;;;;16.20;4.92;;;;;;;-3.27;54.77;100971.90;1735936;83;21531;-62
2023/02/23 00:52:30;;;;;;;11.60;4.97;;;;;;;-3.31;55.17;100977.06;1735990;83;21142;-62
2023/02/23 00:55:01;;;;;;;10.20;4.28;;;;;;;-3.31;55.28;100976.20;1735996;82;21083;-62
2023/02/23 00:57:33;;;;;;;9.73;4.55;;;;;;;-3.34;55.28;100972.37;1735915;82;21119;-63
2023/02/23 01:00:21;;;;;;;11.22;4.90;;;;;;;-3.37;55.58;100979.27;1736025;83;21507;-64
2023/02/23 01:02:49;;;;;;;6.43;3.50;;;;;;;-3.42;55.60;100978.20;1735846;82;21442;-64
2023/02/23 01:05:21;;;;;;;8.90;4.30;;;;;;;-3.45;55.74;100986.44;1736078;82;21612;-64
2023/02/23 01:07:49;;;;;;;10.45;4.87;;;;;;;-3.46;55.96;100989.20;1735925;82;21138;-65
2023/02/23 01:10:19;;;;;;;10.53;4.83;;;;;;;-3.51;55.99;100993.03;1736059;82;21166;-62
2023/02/23 01:12:50;;;;;;;11.55;5.10;;;;;;;-3.54;56.25;100987.86;1735491;82;21190;-63
2023/02/23 01:15:20;;;;;;;10.50;4.92;;;;;;;-3.55;56.24;100987.47;1735942;83;21150;-63
2023/02/23 01:17:49;;;;;;;11.93;4.78;;;;;;;-3.57;56.51;100989.38;1735640;82;21150;-64
2023/02/23 01:20:18;;;;;;;12.03;5.60;;;;;;;-3.58;56.42;100997.52;1735401;83;21159;-63
2023/02/23 01:22:48;;;;;;;11.85;5.03;;;;;;;-3.61;56.68;100999.04;1735681;81;21202;-64
2023/02/23 01:25:18;;;;;;;11.93;5.22;;;;;;;-3.61;56.75;101001.23;1735027;83;21122;-62
2023/02/23 01:27:46;;;;;;;21.85;5.42;;;;;;;-3.62;56.73;101002.19;1735498;81;21111;-62
2023/02/23 01:30:17;;;;;;;12.58;4.90;;;;;;;-3.68;56.56;101007.92;1735246;83;21104;-63
2023/02/23 01:32:47;;;;;;;10.75;4.83;;;;;;;-3.73;56.83;101012.69;1735370;81;21118;-64
2023/02/23 01:35:16;;;;;;;10.88;4.70;;;;;;;-3.75;56.86;101013.26;1735293;83;21114;-63
2023/02/23 01:37:45;;;;;;;8.70;4.15;;;;;;;-3.76;56.84;101014.69;1734801;81;21154;-63
2023/02/23 01:40:30;;;;;;;22.52;5.30;;;;;;;-3.80;56.75;101016.69;1735049;83;21597;-64
2023/02/23 01:43:12;;;;;;;12.93;4.72;;;;;;;-3.84;56.82;101018.68;1735180;83;21614;-64
2023/02/23 01:45:42;;;;;;;10.38;4.97;;;;;;;-3.86;56.94;101021.92;1735577;83;21123;-63
2023/02/23 01:48:22;;;;;;;13.90;4.50;;;;;;;-3.87;57.01;101021.55;1735280;83;21079;-63
2023/02/23 01:51:11;;;;;;;10.28;4.58;;;;;;;-3.87;57.07;101019.34;1735630;83;21201;-63
2023/02/23 01:53:48;;;;;;;37.88;5.50;;;;;;;-3.92;57.01;101023.59;1735439;83;21541;-63
2023/02/23 01:56:20;;;;;;;;;;;;;;;-3.97;57.28;101017.65;1737810;83;21115;-63
2023/02/23 01:58:55;;;;;;;12.25;4.70;;;;;;;-4.00;57.36;101025.00;1735333;81;20174;-66
2023/02/23 02:01:24;;;;;;;9.48;4.28;;;;;;;-4.02;57.54;101032.25;1735511;83;21119;-62
2023/02/23 02:03:57;;;;;;;10.32;4.62;;;;;;;-4.02;57.34;101029.58;1735330;81;21142;-62
2023/02/23 02:06:27;;;;;;;15.25;5.03;;;;;;;-4.05;57.64;101033.77;1735529;83;21119;-63
2023/02/23 02:09:05;;;;;;;10.93;4.75;;;;;;;-4.07;57.93;101038.34;1735535;83;21738;-63
2023/02/23 02:11:38;;;;;;;13.15;5.40;;;;;;;-4.08;58.41;101044.17;1735212;81;21233;-65
2023/02/23 02:14:14;;;;;;;11.48;4.80;;;;;;;-4.09;58.60;101044.27;1735612;83;21099;-63
2023/02/23 02:17:24;;;;;;;17.73;6.28;;;;;;;-4.12;58.76;101045.78;1735569;81;21118;-63
2023/02/23 02:20:37;;;;;;;11.12;4.75;;;;;;;-4.16;58.99;101050.45;1734858;81;21178;-62
2023/02/23 02:23:35;;;;;;;11.22;4.78;;;;;;;-4.21;59.25;101052.05;1665391;85;21542;-64
2023/02/23 02:26:30;;;;;;;10.40;4.77;;;;;;;-4.18;59.33;101057.22;1665703;85;21741;-66
2023/02/23 02:29:27;;;;;;;13.10;4.78;;;;;;;-4.20;59.57;101059.12;1729791;82;21833;-64
2023/02/23 02:32:22;;;;;;;13.32;5.35;;;;;;;-4.21;59.63;101065.90;1665298;85;21186;-63
2023/02/23 02:35:17;;;;;;;14.30;5.07;;;;;;;-4.23;59.66;101064.65;1636715;86;21204;-63
2023/02/23 02:38:02;;;;;;;9.48;4.70;;;;;;;-4.29;59.65;101069.02;1651718;86;21261;-64
2023/02/23 02:40:52;;;;;;;11.25;4.33;;;;;;;-4.34;59.50;101073.76;1615409;86;21667;-64
2023/02/23 02:43:49;;;;;;;34.45;7.25;;;;;;;-4.47;59.68;101073.58;1665382;86;21211;-62
2023/02/23 02:46:32;;;;;;;11.33;4.40;;;;;;;-4.51;59.33;101079.19;1665517;85;21162;-63
2023/02/23 02:49:25;;;;;;;9.73;4.50;;;;;;;-4.51;59.33;101079.19;1665402;86;21644;-63
2023/02/23 02:52:29;;;;;;;11.68;4.45;;;;;;;-4.49;59.24;101085.31;1665308;86;21126;-62
2023/02/23 02:55:08;;;;;;;14.25;4.78;;;;;;;-4.51;58.93;101084.54;1665600;86;21174;-63
2023/02/23 02:57:39;;;;;;;10.03;4.47;;;;;;;-4.51;58.93;101084.54;1665753;85;21618;-62
2023/02/23 04:19:11;;;;;;;14.93;4.85;;;;;;;-5.22;59.91;101134.64;1684072;84;21301;-67
2023/02/23 04:21:40;;;;;;;10.88;4.33;;;;;;;-5.22;60.10;101138.17;1683946;85;21494;-63
2023/02/23 04:24:10;;;;;;;11.95;4.42;;;;;;;-5.19;60.09;101138.52;1684280;85;21055;-63
2023/02/23 04:26:39;;;;;;;20.50;5.08;;;;;;;-5.16;60.06;101150.38;1684004;85;21066;-64
2023/02/23 04:29:11;;;;;;;16.57;5.80;;;;;;;-5.18;60.07;101145.12;1684178;84;21030;-62
2023/02/23 04:31:43;;;;;;;32.00;6.20;;;;;;;-5.20;60.11;101147.00;1684038;85;21054;-64
2023/02/23 04:34:13;;;;;;;25.52;6.70;;;;;;;-5.23;60.34;101152.94;1684547;85;21059;-62
2023/02/23 04:36:42;;;;;;;19.87;6.15;;;;;;;-5.28;60.29;101154.98;1729954;83;21466;-62
2023/02/23 04:39:12;;;;;;;13.60;5.80;;;;;;;-5.35;60.47;101151.77;1735224;81;21019;-62
2023/02/23 04:41:41;;;;;;;12.05;5.58;;;;;;;-5.34;60.83;101155.30;1735673;83;21070;-65
2023/02/23 04:44:10;;;;;;;12.93;5.50;;;;;;;-5.28;60.97;101163.86;1735509;83;21079;-61
2023/02/23 04:46:39;;;;;;;16.23;5.58;;;;;;;-5.26;60.89;101162.45;1735401;83;21297;-63
2023/02/23 04:49:11;;;;;;;13.13;5.60;;;;;;;-5.29;60.81;101163.94;1735197;82;20992;-62
2023/02/23 04:51:40;;;;;;;21.12;6.05;;;;;;;-5.31;61.03;101173.84;1735720;83;21024;-63
2023/02/23 04:54:12;;;;;;;17.05;4.97;;;;;;;-5.30;60.97;101172.42;1735411;83;21099;-63
2023/02/23 04:56:42;;;;;;;13.62;4.85;;;;;;;-5.31;60.93;101166.69;1734846;83;20984;-64
2023/02/23 04:59:12;;;;;;;15.65;5.42;;;;;;;-5.32;60.79;101174.78;1735512;81;21438;-61
2023/02/23 05:01:41;;;;;;;15.20;4.97;;;;;;;-5.32;60.79;101174.78;1735823;83;21008;-62
2023/02/23 05:04:10;;;;;;;17.07;5.20;;;;;;;-5.32;60.92;101174.31;1735269;83;21039;-62
2023/02/23 05:06:41;;;;;;;46.33;6.87;;;;;;;-5.34;60.79;101187.34;1735542;81;21098;-61
2023/02/23 05:09:10;;;;;;;56.15;7.42;;;;;;;-5.32;60.78;101190.80;1735520;83;21039;-62
2023/02/23 05:11:39;;;;;;;23.20;5.97;;;;;;;-5.29;60.57;101190.17;1735791;83;21067;-61
2023/02/23 05:14:11;;;;;;;41.63;6.17;;;;;;;-5.28;60.52;101191.91;1735041;83;21097;-62
2023/02/23 05:16:41;;;;;;;13.75;5.22;;;;;;;-5.29;60.14;101199.99;1735492;83;21044;-63
2023/02/23 05:19:12;;;;;;;18.82;5.15;;;;;;;-5.29;60.14;101199.99;1735402;82;21153;-63
2023/02/23 05:21:43;;;;;;;22.50;6.60;;;;;;;-5.28;60.46;101200.39;1735546;81;21099;-63
2023/02/23 05:24:13;;;;;;;24.40;5.80;;;;;;;-5.22;59.93;101202.75;1735594;83;21078;-64
2023/02/23 05:26:42;;;;;;;14.83;5.67;;;;;;;-5.22;59.93;101202.75;1735248;83;21083;-64
2023/02/23 05:29:12;;;;;;;21.42;5.60;;;;;;;-5.22;59.98;101210.77;1735038;83;21528;-64
2023/02/23 05:31:41;;;;;;;14.30;5.25;;;;;;;-5.24;59.83;101212.17;1735370;81;21082;-64
2023/02/23 05:34:12;;;;;;;18.00;5.70;;;;;;;-5.27;59.86;101220.81;1735170;83;21447;-64
2023/02/23 05:36:41;;;;;;;13.03;4.85;;;;;;;-5.27;59.76;101228.36;1735265;83;21420;-63
2023/02/23 05:39:11;;;;;;;17.15;6.37;;;;;;;-5.26;59.51;101232.76;1735303;83;21416;-63
2023/02/23 05:41:40;;;;;;;16.23;5.58;;;;;;;-5.25;59.47;101233.62;1735395;83;20980;-63
2023/02/23 05:44:09;;;;;;;45.52;6.67;;;;;;;-5.24;59.28;101235.34;1735530;83;21062;-62
2023/02/23 05:46:40;;;;;;;22.52;5.90;;;;;;;-5.27;59.22;101241.71;1735369;83;21027;-62
2023/02/23 05:49:10;;;;;;;13.90;5.33;;;;;;;-5.26;59.05;101245.25;1735443;83;21047;-64
2023/02/23 05:51:41;;;;;;;24.50;6.10;;;;;;;-5.28;59.07;101246.66;1735293;83;21064;-62
2023/02/23 05:54:12;;;;;;;23.07;5.55;;;;;;;-5.22;59.06;101258.38;1735337;82;21047;-64
2023/02/23 05:56:43;;;;;;;23.95;6.28;;;;;;;-5.17;58.92;101260.84;1735732;82;21079;-63
2023/02/23 05:59:13;;;;;;;41.18;8.55;;;;;;;-5.17;58.92;101260.84;1735298;83;21482;-64
2023/02/23 06:01:45;;;;;;;12.78;5.37;;;;;;;-5.14;58.77;101265.56;1735430;81;20983;-63
2023/02/23 06:04:16;;;;;;;13.35;5.40;;;;;;;-5.17;58.59;101267.53;1735535;83;21008;-65
2023/02/23 06:06:45;;;;;;;26.20;6.00;;;;;;;-5.21;58.42;101273.93;1735542;83;21054;-63
2023/02/23 06:09:16;;;;;;;21.55;6.35;;;;;;;-5.25;58.47;101275.89;1735334;81;21436;-64
2023/02/23 06:11:45;;;;;;;20.30;6.75;;;;;;;-5.22;58.63;101275.73;1735316;82;21020;-64
2023/02/23 06:14:15;;;;;;;25.37;6.22;;;;;;;-5.22;58.66;101281.08;1735583;83;21079;-61
2023/02/23 06:16:47;;;;;;;19.15;5.92;;;;;;;-5.21;58.75;101286.81;1735658;81;21094;-63
2023/02/23 06:19:16;;;;;;;21.87;5.65;;;;;;;-5.17;58.79;101288.90;1735311;82;21298;-66
2023/02/23 06:21:45;;;;;;;25.80;5.70;;;;;;;-5.15;58.76;101287.87;1736104;83;21078;-64
2023/02/23 06:24:14;;;;;;;23.00;5.62;;;;;;;-5.12;58.72;101293.07;1736447;81;21027;-62
2023/02/23 06:26:45;;;;;;;27.13;6.50;;;;;;;-5.07;58.58;101286.16;1735894;81;21019;-62
2023/02/23 06:29:16;;;;;;;17.05;5.40;;;;;;;-5.04;58.64;101290.02;1735620;83;21440;-63
2023/02/23 06:31:45;;;;;;;20.15;6.53;;;;;;;-5.02;58.70;101288.13;1735543;81;21459;-65
2023/02/23 06:34:15;;;;;;;17.52;5.47;;;;;;;-4.91;58.30;101296.47;1735829;82;21463;-63
2023/02/23 06:36:45;;;;;;;16.07;5.40;;;;;;;-4.91;58.30;101296.47;1710978;83;21031;-64
2023/02/23 06:39:14;;;;;;;15.00;5.80;;;;;;;-4.87;58.11;101299.39;1735461;82;21039;-61
2023/02/23 06:41:43;;;;;;;20.10;6.78;;;;;;;-4.81;57.90;101297.73;1735917;83;21031;-63
2023/02/23 06:44:12;;;;;;;14.65;5.95;;;;;;;-4.79;57.65;101299.86;1735830;83;21115;-63
2023/02/23 06:46:43;;;;;;;16.12;5.83;;;;;;;-4.69;57.65;101300.73;1735654;83;21243;-62
2023/02/23 06:49:12;;;;;;;18.42;5.90;;;;;;;-4.69;57.65;101300.73;1736012;82;21058;-65
2023/02/23 06:51:45;;;;;;;11.57;5.45;;;;;;;-4.60;57.24;101298.92;1677599;85;21098;-62
2023/02/23 06:54:16;;;;;;;20.45;5.92;;;;;;;-4.53;57.08;101300.36;1676900;85;21075;-63
2023/02/23 06:56:46;;;;;;;15.00;5.10;;;;;;;-4.50;56.88;101303.74;1676887;85;21082;-63
2023/02/23 06:59:15;;;;;;;16.50;5.40;;;;;;;-4.48;56.40;101308.54;1677120;85;21095;-66
2023/02/23 07:01:46;;;;;;;27.65;6.62;;;;;;;-4.49;56.13;101305.95;1677399;85;21055;-64
2023/02/23 07:04:15;;;;;;;13.50;5.70;;;;;;;-4.49;56.13;101305.95;1677503;85;21091;-64
2023/02/23 07:06:45;;;;;;;22.75;6.42;;;;;;;-4.51;55.81;101302.48;1677390;85;21514;-64
2023/02/23 07:09:15;;;;;;;17.52;6.45;;;;;;;-4.53;55.91;101303.03;1690061;83;21044;-67
2023/02/23 07:11:44;;;;;;;16.23;5.62;;;;;;;-4.53;55.91;101303.03;1735614;83;21000;-65
2023/02/23 07:14:16;;;;;;;12.33;4.97;;;;;;;-4.43;55.39;101313.65;1736108;82;21716;-65
2023/02/23 07:16:48;;;;;;;19.67;5.67;;;;;;;-4.43;55.39;101313.65;1734515;83;21068;-64
2023/02/23 07:19:17;;;;;;;12.93;6.08;;;;;;;-4.47;55.13;101314.75;1735793;82;21082;-64
2023/02/23 07:21:46;;;;;;;12.20;5.60;;;;;;;-4.49;55.52;101315.31;1735479;83;21097;-63
2023/02/23 07:24:15;;;;;;;10.68;4.95;;;;;;;-4.44;55.54;101308.38;1735856;82;20987;-64
2023/02/23 07:26:46;;;;;;;21.33;5.90;;;;;;;-4.41;55.33;101316.24;1735607;83;21019;-67
2023/02/23 07:29:15;;;;;;;17.42;5.15;;;;;;;-4.40;55.17;101309.95;1735632;82;21019;-63
2023/02/23 07:31:44;;;;;;;18.02;5.78;;;;;;;-4.39;55.06;101321.91;1735632;83;21135;-63
2023/02/23 07:34:14;;;;;;;20.57;4.70;;;;;;;-4.39;55.06;101321.91;1736190;81;21050;-63
2023/02/23 07:36:42;;;;;;;17.25;5.22;;;;;;;-4.36;53.89;101316.87;1736066;82;21182;-64
2023/02/23 07:39:13;;;;;;;14.45;3.85;;;;;;;-4.36;53.89;101316.87;1735852;81;21035;-64
2023/02/23 07:41:42;;;;;;;16.67;4.25;;;;;;;-4.32;53.66;101312.61;1735943;83;21054;-63
2023/02/23 07:44:17;;;;;;;10.13;4.12;;;;;;;-4.31;53.09;101319.69;1735692;83;21486;-62
2023/02/23 07:46:46;;;;;;;10.90;3.98;;;;;;;-4.29;52.76;101317.80;1735768;82;21451;-64
2023/02/23 07:49:15;;;;;;;11.12;4.22;;;;;;;-4.25;52.68;101316.70;1736190;81;21059;-62
2023/02/23 07:51:45;;;;;;;17.85;4.12;;;;;;;-4.25;52.68;101316.70;1735760;82;21478;-64
2023/02/23 07:54:15;;;;;;;11.78;3.95;;;;;;;-4.23;52.45;101317.48;1736208;83;21015;-69
2023/02/23 07:56:45;;;;;;;18.05;4.95;;;;;;;-4.22;52.42;101320.55;1736033;82;21063;-63
2023/02/23 07:59:14;;;;;;;10.72;3.85;;;;;;;-4.19;51.96;101320.39;1735894;83;21019;-62
2023/02/23 08:01:43;;;;;;;8.48;3.92;;;;;;;-4.19;51.44;101323.06;1735720;83;21561;-64
2023/02/23 08:04:12;;;;;;;11.73;5.17;;;;;;;-4.16;51.59;101324.70;1735795;82;21039;-65
2023/02/23 08:06:42;;;;;;;22.90;6.10;;;;;;;-4.05;51.87;101325.47;1736191;83;21004;-64
2023/02/23 08:09:11;;;;;;;18.02;4.55;;;;;;;-3.56;51.97;101319.20;1735718;83;21035;-63
2023/02/23 08:11:41;;;;;;;16.57;4.40;;;;;;;-3.05;51.67;101315.90;1735725;83;21465;-63
2023/02/23 08:14:11;;;;;;;24.20;4.70;;;;;;;-2.48;50.49;101326.01;1736008;83;21500;-64
2023/02/23 08:16:40;;;;;;;12.68;3.92;;;;;;;-1.99;48.59;101323.88;1735506;81;21062;-64
2023/02/23 08:19:10;;;;;;;13.98;4.22;;;;;;;-1.66;46.71;101318.25;1735590;82;21443;-65
2023/02/23 08:21:42;;;;;;;19.35;4.83;;;;;;;-1.28;46.71;101318.52;1735205;81;21050;-65
2023/02/23 08:24:11;;;;;;;19.00;5.25;;;;;;;-0.94;45.98;101322.55;1735082;83;21668;-67
2023/02/23 08:26:42;;;;;;;13.95;4.60;;;;;;;-0.53;44.94;101315.77;1740986;82;21035;-66
2023/02/23 08:29:11;;;;;;;13.80;5.05;;;;;;;-0.22;44.83;101315.87;1735359;83;21058;-66
2023/02/23 08:31:43;;;;;;;45.83;6.42;;;;;;;0.13;43.58;101308.05;1735771;83;21439;-65
2023/02/23 08:34:12;;;;;;;15.38;4.85;;;;;;;0.34;43.03;101312.88;1735576;81;21019;-66
2023/02/23 08:36:44;;;;;;;16.95;5.33;;;;;;;0.41;42.64;101313.67;1735167;83;21050;-66
2023/02/23 08:39:14;;;;;;;17.80;5.22;;;;;;;0.41;42.58;101318.20;1735640;83;21003;-69
2023/02/23 08:41:44;;;;;;;19.45;5.65;;;;;;;0.50;41.50;101317.54;1735494;83;21451;-65
2023/02/23 08:44:14;;;;;;;20.00;6.25;;;;;;;0.43;41.84;101312.22;1735352;83;20996;-65
2023/02/23 08:46:44;;;;;;;38.63;7.60;;;;;;;0.39;42.15;101314.27;1735251;83;21059;-65
2023/02/23 08:49:16;;;;;;;15.43;5.40;;;;;;;0.34;41.57;101316.91;1735448;81;21019;-67
2023/02/23 08:51:45;;;;;;;13.58;5.75;;;;;;;0.23;42.30;101307.77;1735741;81;21038;-64
2023/02/23 08:54:16;;;;;;;14.43;5.25;;;;;;;0.19;42.24;101306.27;1738713;81;21493;-63
2023/02/23 08:56:45;;;;;;;12.53;5.22;;;;;;;0.10;42.67;101311.44;1761297;81;21465;-65
2023/02/23 08:59:16;;;;;;;19.15;6.08;;;;;;;-0.03;42.59;101313.62;1672275;86;21031;-66
2023/02/23 09:01:46;;;;;;;13.75;5.37;;;;;;;-0.12;42.53;101308.02;1737609;81;21071;-64
2023/02/23 09:04:15;;;;;;;17.42;7.17;;;;;;;-0.19;42.63;101314.80;1737689;82;21502;-64
2023/02/23 09:06:46;;;;;;;17.50;6.20;;;;;;;-0.20;43.07;101319.31;1737291;81;21078;-65
2023/02/23 09:09:16;;;;;;;27.98;9.30;;;;;;;-0.19;42.61;101317.48;1737803;81;21478;-63
2023/02/23 09:11:45;;;;;;;25.40;8.23;;;;;;;-0.25;42.41;101327.34;1737993;82;21062;-65
2023/02/23 09:14:15;;;;;;;14.25;6.05;;;;;;;-0.32;42.66;101327.77;1737832;81;21509;-64
2023/02/23 09:16:46;;;;;;;18.98;5.92;;;;;;;-0.27;42.96;101327.44;1737588;81;21105;-64
2023/02/23 09:19:17;;;;;;;16.25;5.22;;;;;;;-0.28;41.87;101328.89;1685905;84;21053;-63
2023/02/23 09:21:46;;;;;;;14.73;5.58;;;;;;;-0.42;41.83;101332.53;1677754;84;21086;-62
2023/02/23 09:24:17;;;;;;;14.50;6.55;;;;;;;-0.48;42.16;101330.25;1677280;85;21034;-63
2023/02/23 09:26:47;;;;;;;37.23;6.92;;;;;;;-0.55;41.71;101335.20;1677248;85;21066;-65
2023/02/23 09:29:16;;;;;;;24.43;6.55;;;;;;;-0.59;41.32;101332.81;1697686;84;21040;-63
2023/02/23 09:31:45;;;;;;;22.05;6.45;;;;;;;-0.73;41.55;101335.05;1638330;87;21172;-63
2023/02/23 09:34:14;;;;;;;22.37;6.55;;;;;;;-0.82;40.93;101332.98;1703922;84;21055;-63
2023/02/23 09:36:45;;;;;;;27.62;6.85;;;;;;;-0.88;41.07;101334.73;1572869;89;21143;-64
2023/02/23 09:39:15;;;;;;;19.77;7.47;;;;;;;-0.96;41.75;101330.72;1675952;85;21023;-63
2023/02/23 09:42:13;;;;;;;24.75;7.92;;;;;;;-0.97;42.18;101332.16;1675407;85;21127;-63
2023/02/23 09:45:21;;;;;;;19.60;7.50;;;;;;;-0.97;42.92;101328.99;1674019;85;21043;-64
2023/02/23 09:48:11;;;;;;;28.55;8.90;;;;;;;-0.94;42.96;101329.27;1675491;85;21075;-63
2023/02/23 09:50:44;;;;;;;24.05;8.83;;;;;;;-0.87;43.23;101335.11;1676147;85;21074;-62
2023/02/23 09:53:45;;;;;;;22.52;7.40;;;;;;;-0.83;43.08;101332.59;1675860;85;21050;-62
2023/02/23 09:56:31;;;;;;;20.92;8.00;;;;;;;-0.84;42.42;101330.87;1764351;81;21024;-63
2023/02/23 09:59:01;;;;;;;35.65;9.78;;;;;;;-0.89;42.54;101328.97;1694481;84;21111;-64
2023/02/23 10:01:54;;;;;;;23.35;8.13;;;;;;;-0.93;43.23;101324.27;1694407;85;21096;-62
2023/02/23 10:04:43;;;;;;;24.18;8.13;;;;;;;-0.89;43.37;101327.63;1694875;84;21012;-63
2023/02/23 10:07:27;;;;;;;22.50;9.10;;;;;;;-0.92;43.21;101318.41;1723426;83;21021;-64
2023/02/23 10:10:16;;;;;;;26.00;9.25;;;;;;;-0.96;43.57;101312.38;1694261;85;21051;-64
2023/02/23 10:13:17;;;;;;;31.48;9.13;;;;;;;-0.93;43.63;101308.13;1692772;85;21005;-64
2023/02/23 10:16:05;;;;;;;21.68;8.98;;;;;;;-0.90;43.69;101313.80;1694323;85;21082;-63
2023/02/23 10:18:55;;;;;;;25.32;10.10;;;;;;;-0.87;43.74;101313.59;1694465;84;21060;-62
2023/02/23 10:21:37;;;;;;;29.15;9.78;;;;;;;-0.85;43.95;101313.86;1650622;85;21496;-62
2023/02/23 10:24:20;;;;;;;23.83;8.58;;;;;;;-0.81;43.82;101303.77;1718154;83;21401;-63
2023/02/23 10:27:03;;;;;;;42.58;10.08;;;;;;;-0.78;44.00;101303.07;1688745;85;21408;-63
2023/02/23 10:29:49;;;;;;;21.57;7.30;;;;;;;-0.76;43.70;101300.28;1717627;83;21070;-63
2023/02/23 10:32:44;;;;;;;19.67;6.97;;;;;;;-0.73;44.06;101300.08;1688978;84;21776;-64
2023/02/23 10:35:22;;;;;;;19.60;8.33;;;;;;;-0.72;43.81;101297.77;1717689;83;21027;-63
2023/02/23 10:37:51;;;;;;;25.88;8.18;;;;;;;-0.75;43.54;101297.97;1689513;84;21454;-64
2023/02/23 10:40:27;;;;;;;18.70;7.70;;;;;;;-0.77;43.61;101295.38;1717565;83;21043;-63
2023/02/23 10:43:00;;;;;;;18.62;7.05;;;;;;;-0.79;43.48;101297.80;1672361;85;21114;-63
2023/02/23 10:45:32;;;;;;;15.72;7.03;;;;;;;-0.81;43.34;101301.94;1688129;83;21086;-65
2023/02/23 10:48:06;;;;;;;18.65;7.75;;;;;;;-0.76;43.27;101297.59;1689275;85;21041;-61
2023/02/23 10:50:37;;;;;;;22.87;8.57;;;;;;;-0.72;42.94;101297.28;1717955;83;21103;-61
2023/02/23 10:53:22;;;;;;;20.50;8.30;;;;;;;-0.71;42.47;101293.63;1689233;84;21810;-63
2023/02/23 10:56:12;;;;;;;13.78;7.20;;;;;;;-0.73;42.69;101291.52;1717645;83;21023;-62
2023/02/23 10:58:50;;;;;;;21.60;7.65;;;;;;;-0.71;42.55;101290.06;1689565;83;21084;-64
2023/02/23 11:01:43;;;;;;;30.48;8.73;;;;;;;-0.75;42.37;101288.06;1717576;83;21079;-64
2023/02/23 11:04:28;;;;;;;27.15;8.30;;;;;;;-0.77;42.92;101285.10;1687616;84;21570;-62
2023/02/23 11:07:28;;;;;;;18.52;7.58;;;;;;;-0.75;43.17;101287.20;1717366;83;21000;-63
2023/02/23 11:09:59;;;;;;;18.55;7.45;;;;;;;-0.67;43.15;101286.20;1609725;88;21062;-64
2023/02/23 11:12:42;;;;;;;24.52;7.83;;;;;;;-0.59;43.23;101281.19;1636116;88;21078;-64
2023/02/23 11:15:32;;;;;;;22.13;7.30;;;;;;;-0.57;42.66;101276.56;1635905;88;21611;-62
2023/02/23 11:18:03;;;;;;;16.85;6.53;;;;;;;-0.56;42.75;101275.60;1632514;88;21136;-62
2023/02/23 11:20:39;;;;;;;18.62;7.30;;;;;;;-0.53;43.00;101279.91;1636184;87;21113;-63
2023/02/23 11:23:30;;;;;;;18.85;6.62;;;;;;;-0.50;42.42;101273.83;1635953;88;21109;-63
2023/02/23 11:26:21;;;;;;;16.00;6.78;;;;;;;-0.50;42.01;101279.22;1608811;89;21034;-64
2023/02/23 11:28:52;;;;;;;16.32;6.53;;;;;;;-0.48;42.15;101279.97;1635980;87;21043;-62
2023/02/23 11:31:29;;;;;;;17.48;7.05;;;;;;;-0.46;41.77;101279.38;1635826;88;21079;-62
2023/02/23 11:33:58;;;;;;;24.47;6.93;;;;;;;-0.43;41.87;101283.21;1604994;89;21483;-64
2023/02/23 11:36:32;;;;;;;17.25;7.22;;;;;;;-0.38;41.74;101279.72;1635957;88;21578;-65
2023/02/23 11:39:18;;;;;;;27.22;7.67;;;;;;;-0.34;41.40;101273.63;1635459;87;21062;-62
2023/02/23 11:41:49;;;;;;;19.42;7.90;;;;;;;-0.40;41.45;101274.92;1635147;87;21140;-62
2023/02/23 11:44:21;;;;;;;22.58;8.65;;;;;;;-0.42;40.96;101276.86;1610386;87;21210;-65
2023/02/23 11:46:50;;;;;;;20.70;8.35;;;;;;;-0.44;41.18;101273.41;1636371;88;21080;-64
2023/02/23 11:49:24;;;;;;;28.62;10.03;;;;;;;-0.44;41.70;101273.41;1636156;87;21071;-63
2023/02/23 11:51:53;;;;;;;25.10;9.65;;;;;;;-0.40;41.92;101275.41;1635715;88;21088;-62
2023/02/23 11:54:35;;;;;;;20.72;8.73;;;;;;;-0.39;41.72;101275.30;1635717;87;21512;-62
2023/02/23 11:57:05;;;;;;;22.45;8.90;;;;;;;-0.37;42.68;101277.89;1636037;88;21088;-63
2023/02/23 11:59:38;;;;;;;24.02;9.03;;;;;;;-0.34;42.67;101269.11;1636129;88;21039;-64
2023/02/23 12:02:26;;;;;;;31.82;9.30;;;;;;;-0.28;42.34;101268.30;1635201;88;21104;-62
2023/02/23 12:05:08;;;;;;;34.43;9.78;;;;;;;-0.25;42.21;101264.91;1635786;87;21078;-63
2023/02/23 12:08:05;;;;;;;29.27;9.78;;;;;;;-0.20;41.89;101273.53;1636025;88;21095;-63
2023/02/23 12:10:38;;;;;;;;;;;;;;;-0.17;42.11;101269.28;1641057;87;21029;-62
2023/02/23 12:13:27;;;;;;;24.40;9.25;;;;;;;-0.09;42.24;101267.39;1638467;87;20220;-62
2023/02/23 12:16:32;;;;;;;29.57;9.48;;;;;;;-0.05;41.30;101262.16;1622277;87;21874;-63
2023/02/23 12:19:27;;;;;;;32.80;9.23;;;;;;;-0.08;41.41;101259.20;1637971;87;21262;-62
2023/02/23 12:22:12;;;;;;;24.30;8.60;;;;;;;-0.04;41.71;101259.84;1638039;87;21438;-62
2023/02/23 12:24:46;;;;;;;22.30;8.45;;;;;;;0.03;41.34;101257.61;1638237;87;21089;-64
2023/02/23 12:27:35;;;;;;;23.02;9.20;;;;;;;0.04;40.24;101250.77;1638496;86;21045;-63
2023/02/23 12:30:34;;;;;;;13.58;5.60;;;;;;;0.01;40.99;101252.33;1638248;87;21328;-67
2023/02/23 12:33:37;;;;;;;15.45;6.35;;;;;;;0.04;40.11;101254.81;1638451;87;21104;-62
2023/02/23 12:36:30;;;;;;;23.60;9.15;;;;;;;0.07;39.78;101249.69;1638596;87;21013;-62
2023/02/23 12:39:31;;;;;;;17.42;7.60;;;;;;;0.05;39.89;101251.14;1638688;86;21041;-64
2023/02/23 12:42:19;;;;;;;19.20;6.72;;;;;;;0.07;40.09;101239.77;1608786;87;21077;-63
2023/02/23 12:45:02;;;;;;;16.45;6.70;;;;;;;0.11;39.79;101236.38;1638154;86;21095;-64
2023/02/23 12:48:03;;;;;;;33.40;8.48;;;;;;;0.11;39.12;101241.27;1614762;87;21069;-62
2023/02/23 12:50:44;;;;;;;32.45;7.62;;;;;;;0.11;39.38;101241.27;1638429;87;21645;-62
2023/02/23 12:53:27;;;;;;;21.57;6.80;;;;;;;0.07;38.85;101231.69;1638549;87;21514;-63
2023/02/23 12:56:36;;;;;;;15.85;7.10;;;;;;;0.08;39.27;101238.80;1633776;87;21478;-62
2023/02/23 12:59:29;;;;;;;14.55;6.62;;;;;;;0.12;39.33;101230.88;1638803;87;21073;-62
2023/02/23 13:02:26;;;;;;;18.65;7.05;;;;;;;0.14;38.79;101220.84;1638760;87;21046;-62
2023/02/23 13:05:14;;;;;;;22.42;7.33;;;;;;;0.14;38.88;101216.80;1638569;86;21093;-61
2023/02/23 13:08:22;;;;;;;19.20;7.80;;;;;;;0.13;38.67;101212.87;1638650;87;21536;-61
2023/02/23 13:11:16;;;;;;;27.17;8.13;;;;;;;0.17;39.11;101215.72;1631201;88;21773;-62
2023/02/23 13:14:06;;;;;;;17.85;8.40;;;;;;;0.22;39.37;101209.02;1630984;88;21547;-63
2023/02/23 13:16:54;;;;;;;30.10;8.80;;;;;;;0.26;39.36;101206.48;1631224;87;21042;-63
2023/02/23 13:19:41;;;;;;;26.85;8.23;;;;;;;0.28;39.27;101200.48;1631145;88;21505;-62